sensor_id;sensor_type;location;lat;lon;timestamp;P1;durP1;ratioP1;P2;durP2;ratioP2
77518;SDS011;66629;47.346;19.038;2023-04-24T00:00:12;8.40;;;5.80;;
77518;SDS011;66629;47.346;19.038;2023-04-24T00:02:40;8.55;;;5.95;;
77518;SDS011;66629;47.346;19.038;2023-04-24T00:05:10;6.65;;;5.28;;
77518;SDS011;66629;47.346;19.038;2023-04-24T00:07:35;7.35;;;5.80;;
77518;SDS011;66629;47.346;19.038;2023-04-24T00:10:01;9.40;;;5.15;;
77518;SDS011;66629;47.346;19.038;2023-04-24T00:12:26;7.13;;;5.20;;
77518;SDS011;66629;47.346;19.038;2023-04-24T00:14:52;7.22;;;5.57;;
77518;SDS011;66629;47.346;19.038;2023-04-24T00:17:18;7.45;;;5.50;;
77518;SDS011;66629;47.346;19.038;2023-04-24T00:19:46;7.43;;;5.57;;
77518;SDS011;66629;47.346;19.038;2023-04-24T00:22:12;10.07;;;6.18;;
77518;SDS011;66629;47.346;19.038;2023-04-24T00:24:39;7.35;;;5.28;;
77518;SDS011;66629;47.346;19.038;2023-04-24T00:27:05;8.27;;;5.82;;
77518;SDS011;66629;47.346;19.038;2023-04-24T00:29:31;10.57;;;6.13;;
77518;SDS011;66629;47.346;19.038;2023-04-24T00:31:56;11.63;;;6.03;;
77518;SDS011;66629;47.346;19.038;2023-04-24T00:34:22;11.15;;;7.07;;
77518;SDS011;66629;47.346;19.038;2023-04-24T00:36:47;11.85;;;7.68;;
77518;SDS011;66629;47.346;19.038;2023-04-24T00:39:17;13.20;;;7.55;;
77518;SDS011;66629;47.346;19.038;2023-04-24T00:41:45;12.50;;;8.50;;
77518;SDS011;66629;47.346;19.038;2023-04-24T00:44:11;14.30;;;9.10;;
77518;SDS011;66629;47.346;19.038;2023-04-24T00:46:36;15.98;;;8.93;;
77518;SDS011;66629;47.346;19.038;2023-04-24T00:49:02;14.25;;;8.45;;
77518;SDS011;66629;47.346;19.038;2023-04-24T00:51:29;11.75;;;7.95;;
77518;SDS011;66629;47.346;19.038;2023-04-24T00:53:55;11.85;;;7.28;;
77518;SDS011;66629;47.346;19.038;2023-04-24T00:56:21;10.70;;;7.40;;
77518;SDS011;66629;47.346;19.038;2023-04-24T00:58:46;10.38;;;7.45;;
77518;SDS011;66629;47.346;19.038;2023-04-24T01:01:12;10.10;;;7.07;;
77518;SDS011;66629;47.346;19.038;2023-04-24T01:03:38;9.45;;;6.43;;
77518;SDS011;66629;47.346;19.038;2023-04-24T01:06:05;8.23;;;6.57;;
77518;SDS011;66629;47.346;19.038;2023-04-24T01:08:31;12.30;;;7.05;;
77518;SDS011;66629;47.346;19.038;2023-04-24T01:10:57;8.82;;;6.70;;
77518;SDS011;66629;47.346;19.038;2023-04-24T01:13:23;11.40;;;6.35;;
77518;SDS011;66629;47.346;19.038;2023-04-24T01:15:48;11.45;;;6.60;;
77518;SDS011;66629;47.346;19.038;2023-04-24T01:18:14;9.15;;;6.65;;
77518;SDS011;66629;47.346;19.038;2023-04-24T01:20:40;10.18;;;6.13;;
77518;SDS011;66629;47.346;19.038;2023-04-24T01:23:08;9.10;;;6.88;;
77518;SDS011;66629;47.346;19.038;2023-04-24T01:25:34;11.43;;;7.63;;
77518;SDS011;66629;47.346;19.038;2023-04-24T01:28:00;7.40;;;5.47;;
77518;SDS011;66629;47.346;19.038;2023-04-24T01:30:26;8.20;;;5.63;;
77518;SDS011;66629;47.346;19.038;2023-04-24T01:32:52;7.15;;;4.72;;
77518;SDS011;66629;47.346;19.038;2023-04-24T01:35:18;6.55;;;4.85;;
77518;SDS011;66629;47.346;19.038;2023-04-24T01:37:44;6.20;;;4.78;;
77518;SDS011;66629;47.346;19.038;2023-04-24T01:40:10;6.85;;;5.15;;
77518;SDS011;66629;47.346;19.038;2023-04-24T01:42:35;7.05;;;5.35;;
77518;SDS011;66629;47.346;19.038;2023-04-24T01:45:01;8.20;;;5.80;;
77518;SDS011;66629;47.346;19.038;2023-04-24T01:47:28;9.00;;;6.50;;
77518;SDS011;66629;47.346;19.038;2023-04-24T01:49:55;10.02;;;6.45;;
77518;SDS011;66629;47.346;19.038;2023-04-24T01:52:21;8.45;;;6.63;;
77518;SDS011;66629;47.346;19.038;2023-04-24T01:54:46;8.45;;;6.30;;
77518;SDS011;66629;47.346;19.038;2023-04-24T01:57:12;8.63;;;6.13;;
77518;SDS011;66629;47.346;19.038;2023-04-24T01:59:39;9.25;;;6.28;;
77518;SDS011;66629;47.346;19.038;2023-04-24T02:02:05;7.90;;;6.53;;
77518;SDS011;66629;47.346;19.038;2023-04-24T02:04:30;8.38;;;7.25;;
77518;SDS011;66629;47.346;19.038;2023-04-24T02:06:56;10.38;;;7.10;;
77518;SDS011;66629;47.346;19.038;2023-04-24T02:09:22;8.18;;;6.03;;
77518;SDS011;66629;47.346;19.038;2023-04-24T02:11:47;9.07;;;6.05;;
77518;SDS011;66629;47.346;19.038;2023-04-24T02:14:12;7.70;;;5.70;;
77518;SDS011;66629;47.346;19.038;2023-04-24T02:16:38;8.45;;;6.18;;
77518;SDS011;66629;47.346;19.038;2023-04-24T02:19:03;9.02;;;6.15;;
77518;SDS011;66629;47.346;19.038;2023-04-24T02:21:29;9.18;;;5.90;;
77518;SDS011;66629;47.346;19.038;2023-04-24T02:23:56;10.20;;;6.32;;
77518;SDS011;66629;47.346;19.038;2023-04-24T02:26:21;8.05;;;5.50;;
77518;SDS011;66629;47.346;19.038;2023-04-24T02:28:47;7.32;;;5.30;;
77518;SDS011;66629;47.346;19.038;2023-04-24T02:31:12;7.97;;;6.03;;
77518;SDS011;66629;47.346;19.038;2023-04-24T02:33:38;6.68;;;5.40;;
77518;SDS011;66629;47.346;19.038;2023-04-24T02:36:03;10.13;;;5.38;;
77518;SDS011;66629;47.346;19.038;2023-04-24T02:38:29;7.60;;;5.90;;
77518;SDS011;66629;47.346;19.038;2023-04-24T02:40:54;8.38;;;5.75;;
77518;SDS011;66629;47.346;19.038;2023-04-24T02:43:20;9.18;;;6.15;;
77518;SDS011;66629;47.346;19.038;2023-04-24T02:45:46;8.88;;;6.13;;
77518;SDS011;66629;47.346;19.038;2023-04-24T02:48:11;8.52;;;6.38;;
77518;SDS011;66629;47.346;19.038;2023-04-24T02:50:37;8.95;;;6.47;;
77518;SDS011;66629;47.346;19.038;2023-04-24T02:53:02;9.68;;;6.45;;
77518;SDS011;66629;47.346;19.038;2023-04-24T02:55:28;7.28;;;6.07;;
77518;SDS011;66629;47.346;19.038;2023-04-24T02:57:53;8.25;;;6.63;;
77518;SDS011;66629;47.346;19.038;2023-04-24T03:00:19;7.82;;;6.60;;
77518;SDS011;66629;47.346;19.038;2023-04-24T03:02:44;9.40;;;6.70;;
77518;SDS011;66629;47.346;19.038;2023-04-24T03:05:10;9.07;;;6.78;;
77518;SDS011;66629;47.346;19.038;2023-04-24T03:07:37;9.60;;;6.43;;
77518;SDS011;66629;47.346;19.038;2023-04-24T03:10:02;10.93;;;6.75;;
77518;SDS011;66629;47.346;19.038;2023-04-24T03:12:29;7.90;;;6.68;;
77518;SDS011;66629;47.346;19.038;2023-04-24T03:14:55;9.35;;;6.80;;
77518;SDS011;66629;47.346;19.038;2023-04-24T03:17:21;8.93;;;7.13;;
77518;SDS011;66629;47.346;19.038;2023-04-24T03:19:46;10.35;;;6.45;;
77518;SDS011;66629;47.346;19.038;2023-04-24T03:22:12;9.02;;;6.53;;
77518;SDS011;66629;47.346;19.038;2023-04-24T03:24:37;9.88;;;6.95;;
77518;SDS011;66629;47.346;19.038;2023-04-24T03:27:03;10.85;;;6.45;;
77518;SDS011;66629;47.346;19.038;2023-04-24T03:29:28;9.13;;;7.30;;
77518;SDS011;66629;47.346;19.038;2023-04-24T03:31:53;11.20;;;7.63;;
77518;SDS011;66629;47.346;19.038;2023-04-24T03:34:19;9.50;;;7.13;;
77518;SDS011;66629;47.346;19.038;2023-04-24T03:36:44;9.50;;;7.13;;
77518;SDS011;66629;47.346;19.038;2023-04-24T03:39:12;9.35;;;6.97;;
77518;SDS011;66629;47.346;19.038;2023-04-24T03:41:38;8.80;;;6.80;;
77518;SDS011;66629;47.346;19.038;2023-04-24T03:44:03;8.93;;;6.75;;
77518;SDS011;66629;47.346;19.038;2023-04-24T03:46:28;12.18;;;7.60;;
77518;SDS011;66629;47.346;19.038;2023-04-24T03:48:54;11.95;;;7.60;;
77518;SDS011;66629;47.346;19.038;2023-04-24T03:51:20;7.97;;;6.82;;
77518;SDS011;66629;47.346;19.038;2023-04-24T03:53:45;9.50;;;7.60;;
77518;SDS011;66629;47.346;19.038;2023-04-24T03:56:11;9.82;;;7.22;;
77518;SDS011;66629;47.346;19.038;2023-04-24T03:58:36;10.07;;;7.45;;
77518;SDS011;66629;47.346;19.038;2023-04-24T04:01:02;10.43;;;6.78;;
77518;SDS011;66629;47.346;19.038;2023-04-24T04:03:27;12.38;;;6.18;;
77518;SDS011;66629;47.346;19.038;2023-04-24T04:05:53;7.65;;;6.05;;
77518;SDS011;66629;47.346;19.038;2023-04-24T04:08:19;10.40;;;7.68;;
77518;SDS011;66629;47.346;19.038;2023-04-24T04:10:44;10.25;;;7.30;;
77518;SDS011;66629;47.346;19.038;2023-04-24T04:13:10;9.95;;;6.75;;
77518;SDS011;66629;47.346;19.038;2023-04-24T04:15:35;10.70;;;7.82;;
77518;SDS011;66629;47.346;19.038;2023-04-24T04:18:01;10.60;;;7.50;;
77518;SDS011;66629;47.346;19.038;2023-04-24T04:20:26;10.23;;;7.70;;
77518;SDS011;66629;47.346;19.038;2023-04-24T04:22:52;12.55;;;7.50;;
77518;SDS011;66629;47.346;19.038;2023-04-24T04:25:17;9.88;;;7.13;;
77518;SDS011;66629;47.346;19.038;2023-04-24T04:27:44;10.65;;;8.05;;
77518;SDS011;66629;47.346;19.038;2023-04-24T04:30:12;8.90;;;7.05;;
77518;SDS011;66629;47.346;19.038;2023-04-24T04:32:39;9.23;;;6.70;;
77518;SDS011;66629;47.346;19.038;2023-04-24T04:35:04;11.68;;;8.60;;
77518;SDS011;66629;47.346;19.038;2023-04-24T04:37:30;9.95;;;7.90;;
77518;SDS011;66629;47.346;19.038;2023-04-24T04:39:56;10.52;;;8.07;;
77518;SDS011;66629;47.346;19.038;2023-04-24T04:42:23;9.88;;;7.78;;
77518;SDS011;66629;47.346;19.038;2023-04-24T04:44:49;9.68;;;7.25;;
77518;SDS011;66629;47.346;19.038;2023-04-24T04:47:15;11.65;;;7.95;;
77518;SDS011;66629;47.346;19.038;2023-04-24T04:49:42;12.75;;;8.10;;
77518;SDS011;66629;47.346;19.038;2023-04-24T04:52:08;9.70;;;7.75;;
77518;SDS011;66629;47.346;19.038;2023-04-24T04:54:34;11.20;;;7.82;;
77518;SDS011;66629;47.346;19.038;2023-04-24T04:56:59;12.38;;;8.60;;
77518;SDS011;66629;47.346;19.038;2023-04-24T04:59:26;11.57;;;7.60;;
77518;SDS011;66629;47.346;19.038;2023-04-24T05:01:51;9.95;;;7.30;;
77518;SDS011;66629;47.346;19.038;2023-04-24T05:04:17;11.18;;;7.68;;
77518;SDS011;66629;47.346;19.038;2023-04-24T05:06:43;12.38;;;7.68;;
77518;SDS011;66629;47.346;19.038;2023-04-24T05:09:08;14.95;;;7.60;;
77518;SDS011;66629;47.346;19.038;2023-04-24T05:11:34;9.75;;;8.20;;
77518;SDS011;66629;47.346;19.038;2023-04-24T05:14:00;10.68;;;7.20;;
77518;SDS011;66629;47.346;19.038;2023-04-24T05:16:25;9.93;;;7.90;;
77518;SDS011;66629;47.346;19.038;2023-04-24T05:18:51;10.88;;;8.13;;
77518;SDS011;66629;47.346;19.038;2023-04-24T05:21:16;9.93;;;7.55;;
77518;SDS011;66629;47.346;19.038;2023-04-24T05:23:42;10.77;;;8.13;;
77518;SDS011;66629;47.346;19.038;2023-04-24T05:26:07;9.52;;;7.75;;
77518;SDS011;66629;47.346;19.038;2023-04-24T05:28:33;10.63;;;7.72;;
77518;SDS011;66629;47.346;19.038;2023-04-24T05:30:58;10.95;;;8.20;;
77518;SDS011;66629;47.346;19.038;2023-04-24T05:33:24;11.10;;;8.02;;
77518;SDS011;66629;47.346;19.038;2023-04-24T05:35:50;9.68;;;7.90;;
77518;SDS011;66629;47.346;19.038;2023-04-24T05:38:15;8.45;;;7.10;;
77518;SDS011;66629;47.346;19.038;2023-04-24T05:40:44;8.88;;;7.15;;
77518;SDS011;66629;47.346;19.038;2023-04-24T05:43:11;11.68;;;7.78;;
77518;SDS011;66629;47.346;19.038;2023-04-24T05:45:36;11.38;;;8.15;;
77518;SDS011;66629;47.346;19.038;2023-04-24T05:48:03;11.00;;;8.10;;
77518;SDS011;66629;47.346;19.038;2023-04-24T05:50:28;9.77;;;7.20;;
77518;SDS011;66629;47.346;19.038;2023-04-24T05:52:54;9.15;;;7.53;;
77518;SDS011;66629;47.346;19.038;2023-04-24T05:55:19;10.77;;;8.07;;
77518;SDS011;66629;47.346;19.038;2023-04-24T05:57:45;9.90;;;7.40;;
77518;SDS011;66629;47.346;19.038;2023-04-24T06:00:11;10.23;;;7.40;;
77518;SDS011;66629;47.346;19.038;2023-04-24T06:02:37;10.32;;;8.32;;
77518;SDS011;66629;47.346;19.038;2023-04-24T06:05:05;10.95;;;7.70;;
77518;SDS011;66629;47.346;19.038;2023-04-24T06:07:31;10.88;;;7.72;;
77518;SDS011;66629;47.346;19.038;2023-04-24T06:09:56;11.45;;;7.88;;
77518;SDS011;66629;47.346;19.038;2023-04-24T06:12:22;8.68;;;7.60;;
77518;SDS011;66629;47.346;19.038;2023-04-24T06:14:48;11.95;;;7.22;;
77518;SDS011;66629;47.346;19.038;2023-04-24T06:17:13;9.27;;;7.88;;
77518;SDS011;66629;47.346;19.038;2023-04-24T06:19:39;11.10;;;7.25;;
77518;SDS011;66629;47.346;19.038;2023-04-24T06:22:05;10.70;;;7.57;;
77518;SDS011;66629;47.346;19.038;2023-04-24T06:24:30;9.93;;;7.70;;
77518;SDS011;66629;47.346;19.038;2023-04-24T06:26:56;10.73;;;6.88;;
77518;SDS011;66629;47.346;19.038;2023-04-24T06:29:23;9.73;;;7.28;;
77518;SDS011;66629;47.346;19.038;2023-04-24T06:31:49;10.77;;;7.22;;
77518;SDS011;66629;47.346;19.038;2023-04-24T06:34:14;10.88;;;7.25;;
77518;SDS011;66629;47.346;19.038;2023-04-24T06:36:40;9.10;;;6.97;;
77518;SDS011;66629;47.346;19.038;2023-04-24T06:39:05;12.02;;;7.93;;
77518;SDS011;66629;47.346;19.038;2023-04-24T06:41:31;11.15;;;7.88;;
77518;SDS011;66629;47.346;19.038;2023-04-24T06:43:57;8.30;;;7.35;;
77518;SDS011;66629;47.346;19.038;2023-04-24T06:46:22;8.70;;;7.30;;
77518;SDS011;66629;47.346;19.038;2023-04-24T06:48:50;8.40;;;6.80;;
77518;SDS011;66629;47.346;19.038;2023-04-24T06:51:16;10.38;;;7.72;;
77518;SDS011;66629;47.346;19.038;2023-04-24T06:53:43;9.93;;;6.95;;
77518;SDS011;66629;47.346;19.038;2023-04-24T06:56:08;9.70;;;8.05;;
77518;SDS011;66629;47.346;19.038;2023-04-24T06:58:34;12.35;;;7.72;;
77518;SDS011;66629;47.346;19.038;2023-04-24T07:00:59;9.77;;;6.93;;
77518;SDS011;66629;47.346;19.038;2023-04-24T07:03:25;10.65;;;7.60;;
77518;SDS011;66629;47.346;19.038;2023-04-24T07:05:50;8.93;;;7.40;;
77518;SDS011;66629;47.346;19.038;2023-04-24T07:08:16;8.68;;;7.53;;
77518;SDS011;66629;47.346;19.038;2023-04-24T07:10:42;10.23;;;7.55;;
77518;SDS011;66629;47.346;19.038;2023-04-24T07:13:09;10.52;;;7.50;;
77518;SDS011;66629;47.346;19.038;2023-04-24T07:15:34;7.68;;;6.45;;
77518;SDS011;66629;47.346;19.038;2023-04-24T07:18:00;9.93;;;7.82;;
77518;SDS011;66629;47.346;19.038;2023-04-24T07:20:25;10.20;;;8.15;;
77518;SDS011;66629;47.346;19.038;2023-04-24T07:22:51;10.63;;;7.70;;
77518;SDS011;66629;47.346;19.038;2023-04-24T07:25:18;8.52;;;6.97;;
77518;SDS011;66629;47.346;19.038;2023-04-24T07:27:44;8.43;;;7.13;;
77518;SDS011;66629;47.346;19.038;2023-04-24T07:30:10;8.60;;;7.70;;
77518;SDS011;66629;47.346;19.038;2023-04-24T07:32:36;9.95;;;6.93;;
77518;SDS011;66629;47.346;19.038;2023-04-24T07:35:01;9.98;;;7.57;;
77518;SDS011;66629;47.346;19.038;2023-04-24T07:37:27;11.13;;;7.38;;
77518;SDS011;66629;47.346;19.038;2023-04-24T07:39:53;9.05;;;7.15;;
77518;SDS011;66629;47.346;19.038;2023-04-24T07:42:19;12.73;;;7.15;;
77518;SDS011;66629;47.346;19.038;2023-04-24T07:44:44;9.93;;;7.55;;
77518;SDS011;66629;47.346;19.038;2023-04-24T07:47:11;10.32;;;8.07;;
77518;SDS011;66629;47.346;19.038;2023-04-24T07:49:37;9.52;;;8.13;;
77518;SDS011;66629;47.346;19.038;2023-04-24T07:52:02;8.52;;;7.35;;
77518;SDS011;66629;47.346;19.038;2023-04-24T07:54:28;8.70;;;6.32;;
77518;SDS011;66629;47.346;19.038;2023-04-24T07:56:54;9.35;;;7.45;;
77518;SDS011;66629;47.346;19.038;2023-04-24T07:59:19;10.20;;;6.88;;
77518;SDS011;66629;47.346;19.038;2023-04-24T08:01:45;11.18;;;7.47;;
77518;SDS011;66629;47.346;19.038;2023-04-24T08:04:10;8.75;;;6.35;;
77518;SDS011;66629;47.346;19.038;2023-04-24T08:06:35;10.55;;;6.60;;
77518;SDS011;66629;47.346;19.038;2023-04-24T08:09:01;12.10;;;7.20;;
77518;SDS011;66629;47.346;19.038;2023-04-24T08:11:27;9.18;;;6.80;;
77518;SDS011;66629;47.346;19.038;2023-04-24T08:13:52;8.90;;;7.07;;
77518;SDS011;66629;47.346;19.038;2023-04-24T08:16:19;9.88;;;6.95;;
77518;SDS011;66629;47.346;19.038;2023-04-24T08:18:44;9.07;;;6.50;;
77518;SDS011;66629;47.346;19.038;2023-04-24T08:21:10;9.15;;;6.97;;
77518;SDS011;66629;47.346;19.038;2023-04-24T08:23:37;9.35;;;7.40;;
77518;SDS011;66629;47.346;19.038;2023-04-24T08:26:03;10.55;;;6.70;;
77518;SDS011;66629;47.346;19.038;2023-04-24T08:28:28;9.85;;;6.78;;
77518;SDS011;66629;47.346;19.038;2023-04-24T08:30:54;10.23;;;7.07;;
77518;SDS011;66629;47.346;19.038;2023-04-24T08:33:22;9.20;;;5.70;;
77518;SDS011;66629;47.346;19.038;2023-04-24T08:35:48;8.00;;;6.70;;
77518;SDS011;66629;47.346;19.038;2023-04-24T08:38:14;8.75;;;6.68;;
77518;SDS011;66629;47.346;19.038;2023-04-24T08:40:40;8.25;;;6.22;;
77518;SDS011;66629;47.346;19.038;2023-04-24T08:43:06;8.50;;;6.20;;
77518;SDS011;66629;47.346;19.038;2023-04-24T08:45:32;7.57;;;5.93;;
77518;SDS011;66629;47.346;19.038;2023-04-24T08:47:58;10.02;;;6.60;;
77518;SDS011;66629;47.346;19.038;2023-04-24T08:50:24;8.93;;;6.10;;
77518;SDS011;66629;47.346;19.038;2023-04-24T08:52:50;11.57;;;6.40;;
77518;SDS011;66629;47.346;19.038;2023-04-24T08:55:18;6.85;;;5.85;;
77518;SDS011;66629;47.346;19.038;2023-04-24T08:57:45;10.48;;;6.28;;
77518;SDS011;66629;47.346;19.038;2023-04-24T09:00:15;9.63;;;6.38;;
77518;SDS011;66629;47.346;19.038;2023-04-24T09:02:41;11.10;;;6.32;;
77518;SDS011;66629;47.346;19.038;2023-04-24T09:05:08;8.73;;;6.38;;
77518;SDS011;66629;47.346;19.038;2023-04-24T09:07:35;10.30;;;6.90;;
77518;SDS011;66629;47.346;19.038;2023-04-24T09:10:02;10.93;;;6.50;;
77518;SDS011;66629;47.346;19.038;2023-04-24T09:12:28;6.78;;;5.72;;
77518;SDS011;66629;47.346;19.038;2023-04-24T09:14:54;9.05;;;6.40;;
77518;SDS011;66629;47.346;19.038;2023-04-24T09:17:20;7.70;;;5.95;;
77518;SDS011;66629;47.346;19.038;2023-04-24T09:19:48;8.57;;;5.80;;
77518;SDS011;66629;47.346;19.038;2023-04-24T09:22:13;6.70;;;5.05;;
77518;SDS011;66629;47.346;19.038;2023-04-24T09:24:40;6.80;;;5.00;;
77518;SDS011;66629;47.346;19.038;2023-04-24T09:27:06;7.95;;;6.00;;
77518;SDS011;66629;47.346;19.038;2023-04-24T09:29:32;6.85;;;4.65;;
77518;SDS011;66629;47.346;19.038;2023-04-24T09:31:58;6.90;;;5.43;;
77518;SDS011;66629;47.346;19.038;2023-04-24T09:34:24;7.57;;;5.93;;
77518;SDS011;66629;47.346;19.038;2023-04-24T09:36:51;8.30;;;6.05;;
77518;SDS011;66629;47.346;19.038;2023-04-24T09:39:18;7.00;;;5.70;;
77518;SDS011;66629;47.346;19.038;2023-04-24T09:41:50;8.57;;;6.55;;
77518;SDS011;66629;47.346;19.038;2023-04-24T09:44:18;7.15;;;5.65;;
77518;SDS011;66629;47.346;19.038;2023-04-24T09:46:51;10.30;;;6.22;;
77518;SDS011;66629;47.346;19.038;2023-04-24T09:49:26;8.43;;;6.03;;
77518;SDS011;66629;47.346;19.038;2023-04-24T09:52:03;7.28;;;5.82;;
77518;SDS011;66629;47.346;19.038;2023-04-24T09:54:33;8.60;;;5.57;;
77518;SDS011;66629;47.346;19.038;2023-04-24T09:56:59;7.05;;;5.00;;
77518;SDS011;66629;47.346;19.038;2023-04-24T09:59:25;6.35;;;5.63;;
77518;SDS011;66629;47.346;19.038;2023-04-24T10:01:51;7.00;;;5.35;;
77518;SDS011;66629;47.346;19.038;2023-04-24T10:06:47;10.05;;;5.93;;
77518;SDS011;66629;47.346;19.038;2023-04-24T10:09:14;9.82;;;6.22;;
77518;SDS011;66629;47.346;19.038;2023-04-24T10:11:44;8.35;;;5.97;;
77518;SDS011;66629;47.346;19.038;2023-04-24T10:14:12;9.20;;;6.25;;
77518;SDS011;66629;47.346;19.038;2023-04-24T10:16:39;8.48;;;6.22;;
77518;SDS011;66629;47.346;19.038;2023-04-24T10:19:05;8.32;;;6.60;;
77518;SDS011;66629;47.346;19.038;2023-04-24T10:21:31;13.55;;;6.88;;
77518;SDS011;66629;47.346;19.038;2023-04-24T10:23:57;11.00;;;7.18;;
77518;SDS011;66629;47.346;19.038;2023-04-24T10:26:24;7.90;;;6.50;;
77518;SDS011;66629;47.346;19.038;2023-04-24T10:28:52;9.60;;;6.18;;
77518;SDS011;66629;47.346;19.038;2023-04-24T10:31:19;11.00;;;7.28;;
77518;SDS011;66629;47.346;19.038;2023-04-24T10:33:46;8.60;;;6.70;;
77518;SDS011;66629;47.346;19.038;2023-04-24T10:36:12;8.73;;;6.00;;
77518;SDS011;66629;47.346;19.038;2023-04-24T10:38:40;7.85;;;5.85;;
77518;SDS011;66629;47.346;19.038;2023-04-24T10:41:11;7.72;;;5.85;;
77518;SDS011;66629;47.346;19.038;2023-04-24T10:43:44;10.30;;;7.00;;
77518;SDS011;66629;47.346;19.038;2023-04-24T10:46:10;7.97;;;5.88;;
77518;SDS011;66629;47.346;19.038;2023-04-24T10:48:44;8.93;;;5.82;;
77518;SDS011;66629;47.346;19.038;2023-04-24T10:51:18;8.75;;;5.95;;
77518;SDS011;66629;47.346;19.038;2023-04-24T10:53:47;8.27;;;6.20;;
77518;SDS011;66629;47.346;19.038;2023-04-24T10:56:15;10.43;;;5.72;;
77518;SDS011;66629;47.346;19.038;2023-04-24T10:58:42;9.68;;;5.45;;
77518;SDS011;66629;47.346;19.038;2023-04-24T11:01:30;7.35;;;5.95;;
77518;SDS011;66629;47.346;19.038;2023-04-24T11:03:58;7.57;;;6.13;;
77518;SDS011;66629;47.346;19.038;2023-04-24T11:06:31;7.78;;;6.28;;
77518;SDS011;66629;47.346;19.038;2023-04-24T11:09:02;8.90;;;6.70;;
77518;SDS011;66629;47.346;19.038;2023-04-24T11:11:35;8.02;;;5.80;;
77518;SDS011;66629;47.346;19.038;2023-04-24T11:14:03;8.52;;;6.30;;
77518;SDS011;66629;47.346;19.038;2023-04-24T11:16:32;8.63;;;6.25;;
77518;SDS011;66629;47.346;19.038;2023-04-24T11:21:47;9.55;;;6.03;;
77518;SDS011;66629;47.346;19.038;2023-04-24T11:24:25;8.65;;;6.30;;
77518;SDS011;66629;47.346;19.038;2023-04-24T11:29:38;9.30;;;6.88;;
77518;SDS011;66629;47.346;19.038;2023-04-24T11:32:14;8.45;;;6.85;;
77518;SDS011;66629;47.346;19.038;2023-04-24T11:34:51;8.82;;;7.13;;
77518;SDS011;66629;47.346;19.038;2023-04-24T11:37:18;12.25;;;6.93;;
77518;SDS011;66629;47.346;19.038;2023-04-24T11:39:43;10.10;;;7.05;;
77518;SDS011;66629;47.346;19.038;2023-04-24T11:42:09;15.52;;;8.20;;
77518;SDS011;66629;47.346;19.038;2023-04-24T11:44:34;13.30;;;9.23;;
77518;SDS011;66629;47.346;19.038;2023-04-24T11:47:02;13.70;;;9.15;;
77518;SDS011;66629;47.346;19.038;2023-04-24T11:49:29;14.27;;;9.35;;
77518;SDS011;66629;47.346;19.038;2023-04-24T11:51:55;16.42;;;9.07;;
77518;SDS011;66629;47.346;19.038;2023-04-24T11:54:21;14.05;;;9.40;;
77518;SDS011;66629;47.346;19.038;2023-04-24T11:56:47;12.43;;;8.70;;
77518;SDS011;66629;47.346;19.038;2023-04-24T11:59:13;14.18;;;7.88;;
77518;SDS011;66629;47.346;19.038;2023-04-24T12:01:45;11.00;;;7.85;;
77518;SDS011;66629;47.346;19.038;2023-04-24T12:04:11;10.27;;;7.00;;
77518;SDS011;66629;47.346;19.038;2023-04-24T12:06:38;10.13;;;7.00;;
77518;SDS011;66629;47.346;19.038;2023-04-24T12:09:03;8.13;;;6.50;;
77518;SDS011;66629;47.346;19.038;2023-04-24T12:11:29;10.60;;;7.20;;
77518;SDS011;66629;47.346;19.038;2023-04-24T12:13:55;8.27;;;6.28;;
77518;SDS011;66629;47.346;19.038;2023-04-24T12:16:20;9.27;;;5.88;;
77518;SDS011;66629;47.346;19.038;2023-04-24T12:18:46;10.50;;;6.60;;
77518;SDS011;66629;47.346;19.038;2023-04-24T12:21:21;5.88;;;4.22;;
77518;SDS011;66629;47.346;19.038;2023-04-24T12:23:47;8.30;;;4.75;;
77518;SDS011;66629;47.346;19.038;2023-04-24T12:26:17;4.63;;;3.85;;
77518;SDS011;66629;47.346;19.038;2023-04-24T12:28:45;7.05;;;4.72;;
77518;SDS011;66629;47.346;19.038;2023-04-24T12:31:11;7.57;;;5.35;;
77518;SDS011;66629;47.346;19.038;2023-04-24T12:33:37;6.70;;;4.85;;
77518;SDS011;66629;47.346;19.038;2023-04-24T12:36:03;7.75;;;4.93;;
77518;SDS011;66629;47.346;19.038;2023-04-24T12:38:30;8.25;;;5.53;;
77518;SDS011;66629;47.346;19.038;2023-04-24T12:41:06;10.25;;;4.97;;
77518;SDS011;66629;47.346;19.038;2023-04-24T12:43:32;6.55;;;4.72;;
77518;SDS011;66629;47.346;19.038;2023-04-24T12:45:58;8.30;;;4.82;;
77518;SDS011;66629;47.346;19.038;2023-04-24T12:48:27;7.47;;;4.78;;
77518;SDS011;66629;47.346;19.038;2023-04-24T12:50:53;5.70;;;4.30;;
77518;SDS011;66629;47.346;19.038;2023-04-24T12:53:18;5.85;;;3.90;;
77518;SDS011;66629;47.346;19.038;2023-04-24T12:55:44;5.85;;;4.28;;
77518;SDS011;66629;47.346;19.038;2023-04-24T12:58:11;6.32;;;4.10;;
77518;SDS011;66629;47.346;19.038;2023-04-24T13:00:38;7.45;;;2.97;;
77518;SDS011;66629;47.346;19.038;2023-04-24T13:03:04;3.80;;;2.65;;
77518;SDS011;66629;47.346;19.038;2023-04-24T13:05:29;5.85;;;2.80;;
77518;SDS011;66629;47.346;19.038;2023-04-24T13:07:55;4.68;;;2.63;;
77518;SDS011;66629;47.346;19.038;2023-04-24T13:10:20;4.18;;;2.50;;
77518;SDS011;66629;47.346;19.038;2023-04-24T13:12:45;5.15;;;2.28;;
77518;SDS011;66629;47.346;19.038;2023-04-24T13:15:11;4.22;;;2.20;;
77518;SDS011;66629;47.346;19.038;2023-04-24T13:17:37;4.05;;;2.20;;
77518;SDS011;66629;47.346;19.038;2023-04-24T13:20:02;3.60;;;2.42;;
77518;SDS011;66629;47.346;19.038;2023-04-24T13:22:28;3.03;;;2.20;;
77518;SDS011;66629;47.346;19.038;2023-04-24T13:24:53;4.82;;;2.50;;
77518;SDS011;66629;47.346;19.038;2023-04-24T13:27:19;3.78;;;2.28;;
77518;SDS011;66629;47.346;19.038;2023-04-24T13:29:45;4.95;;;2.70;;
77518;SDS011;66629;47.346;19.038;2023-04-24T13:32:10;4.03;;;2.60;;
77518;SDS011;66629;47.346;19.038;2023-04-24T13:34:36;3.25;;;2.50;;
77518;SDS011;66629;47.346;19.038;2023-04-24T13:37:02;5.00;;;2.90;;
77518;SDS011;66629;47.346;19.038;2023-04-24T13:39:31;4.18;;;2.67;;
77518;SDS011;66629;47.346;19.038;2023-04-24T13:41:57;6.18;;;2.97;;
77518;SDS011;66629;47.346;19.038;2023-04-24T13:44:22;5.22;;;3.13;;
77518;SDS011;66629;47.346;19.038;2023-04-24T13:46:49;4.43;;;3.00;;
77518;SDS011;66629;47.346;19.038;2023-04-24T13:49:16;5.10;;;3.35;;
77518;SDS011;66629;47.346;19.038;2023-04-24T13:51:43;6.80;;;3.80;;
77518;SDS011;66629;47.346;19.038;2023-04-24T13:54:09;6.15;;;3.53;;
77518;SDS011;66629;47.346;19.038;2023-04-24T13:56:34;8.85;;;3.92;;
77518;SDS011;66629;47.346;19.038;2023-04-24T13:59:00;5.43;;;3.40;;
77518;SDS011;66629;47.346;19.038;2023-04-24T14:01:26;4.80;;;3.40;;
77518;SDS011;66629;47.346;19.038;2023-04-24T14:03:51;4.93;;;2.97;;
77518;SDS011;66629;47.346;19.038;2023-04-24T14:06:18;6.05;;;3.22;;
77518;SDS011;66629;47.346;19.038;2023-04-24T14:08:43;4.78;;;3.20;;
77518;SDS011;66629;47.346;19.038;2023-04-24T14:11:09;5.05;;;3.58;;
77518;SDS011;66629;47.346;19.038;2023-04-24T14:13:35;6.30;;;4.13;;
77518;SDS011;66629;47.346;19.038;2023-04-24T14:16:02;6.70;;;4.55;;
77518;SDS011;66629;47.346;19.038;2023-04-24T14:18:28;8.00;;;4.43;;
77518;SDS011;66629;47.346;19.038;2023-04-24T14:20:53;6.65;;;4.85;;
77518;SDS011;66629;47.346;19.038;2023-04-24T14:23:19;6.47;;;4.18;;
77518;SDS011;66629;47.346;19.038;2023-04-24T14:25:45;5.35;;;4.15;;
77518;SDS011;66629;47.346;19.038;2023-04-24T14:28:10;7.00;;;4.55;;
77518;SDS011;66629;47.346;19.038;2023-04-24T14:30:36;5.60;;;4.30;;
77518;SDS011;66629;47.346;19.038;2023-04-24T14:33:02;5.75;;;4.22;;